Terminal Aerodrome Forecast
Issued by NWS

Home | Current Version | Previous Version | Text Only | Print | Product List | Glossary On
Versions: 1 2 3 4 5 6 7 8 9 10 11 12
000
FTUS45 KTFX 202335
TAFHVR
TAF
KHVR 202335Z 2100/2124 25011KT P6SM VCSH SCT040 BKN080
      TEMPO 2100/2103 27020G30KT -SHRA BKN040
     FM210300 25020G30KT P6SM SCT025 BKN050
     FM211400 26019G26KT P6SM SCT050=

USA.gov is the U.S. government's official web portal to all federal, state and local government web resources and services.